createdAt,value
2018-05-16T04:09:32.413Z,1008.87
2018-05-16T04:09:57.910Z,1008.91
2018-05-16T04:10:23.378Z,1008.91
2018-05-16T04:10:48.836Z,1008.92
2018-05-16T04:11:14.322Z,1008.93
2018-05-16T04:11:39.851Z,1008.94
2018-05-16T04:12:05.717Z,1008.98
2018-05-16T04:12:31.283Z,1008.93
2018-05-16T04:12:56.779Z,1008.93
2018-05-16T04:13:22.298Z,1008.94
2018-05-16T04:13:47.706Z,1008.92
2018-05-16T04:14:13.187Z,1008.95
2018-05-16T04:14:38.684Z,1008.93
2018-05-16T04:15:04.161Z,1008.98
2018-05-16T04:15:29.620Z,1008.93
2018-05-16T04:15:55.163Z,1008.93
2018-05-16T04:16:20.632Z,1008.89
2018-05-16T04:16:46.138Z,1008.93
2018-05-16T04:17:11.725Z,1008.91
2018-05-16T04:17:37.216Z,1008.91
2018-05-16T04:18:02.715Z,1008.88
2018-05-16T04:18:28.203Z,1008.92
2018-05-16T04:18:53.766Z,1008.89
2018-05-16T04:19:19.212Z,1008.87
2018-05-16T04:19:44.720Z,1008.89
2018-05-16T04:20:10.209Z,1008.9
2018-05-16T04:20:35.703Z,1008.91
2018-05-16T04:21:01.197Z,1008.92
2018-05-16T04:21:26.664Z,1008.91
2018-05-16T04:21:52.160Z,1008.93
2018-05-16T04:22:50.701Z,1008.96
2018-05-16T04:23:16.196Z,1008.96
2018-05-16T04:23:41.714Z,1008.95
2018-05-16T04:24:07.154Z,1008.94
2018-05-16T04:24:32.623Z,1008.96
2018-05-16T04:24:58.113Z,1008.97
2018-05-16T04:25:23.597Z,1008.97
2018-05-16T04:25:49.124Z,1008.97
2018-05-16T04:26:14.639Z,1009
2018-05-16T04:26:40.117Z,1008.99
2018-05-16T04:27:05.605Z,1008.99
2018-05-16T04:28:09.226Z,1008.98
2018-05-16T04:28:34.727Z,1009
2018-05-16T04:29:00.204Z,1008.97
2018-05-16T04:29:25.690Z,1008.98
2018-05-16T04:29:51.244Z,1008.97
2018-05-16T04:30:16.653Z,1009.01
2018-05-16T04:30:42.137Z,1009
2018-05-16T04:31:07.767Z,1009.01
2018-05-16T04:31:33.434Z,1009
2018-05-16T04:31:59.072Z,1008.94
2018-05-16T04:32:24.690Z,1009.01
2018-05-16T04:32:50.206Z,1008.98
2018-05-16T04:33:15.704Z,1008.97
2018-05-16T04:33:41.272Z,1008.95
2018-05-16T04:34:06.743Z,1008.98
2018-05-16T04:34:32.206Z,1008.94
2018-05-16T04:34:57.673Z,1009
2018-05-16T04:35:23.156Z,1008.99
2018-05-16T04:35:48.649Z,1008.99
2018-05-16T04:36:14.113Z,1009.02
2018-05-16T04:36:39.596Z,1009.03
2018-05-16T04:37:05.183Z,1009.03
2018-05-16T04:37:30.641Z,1009.06
2018-05-16T04:37:56.161Z,1009.08
2018-05-16T04:38:21.641Z,1009.05
2018-05-16T04:38:47.184Z,1009.07
2018-05-16T04:39:12.638Z,1009.07
2018-05-16T04:39:38.242Z,1009.08
2018-05-16T04:40:03.771Z,1009.07
2018-05-16T04:40:29.443Z,1009.06
2018-05-16T04:40:55.034Z,1009.1
2018-05-16T04:41:20.681Z,1009.08
2018-05-16T04:41:46.232Z,1009.08
2018-05-16T04:42:11.691Z,1009.08
2018-05-16T04:42:37.253Z,1009.06
2018-05-16T04:43:03.140Z,1009.14
2018-05-16T04:43:29.304Z,1009.08
2018-05-16T04:43:55.141Z,1009.1
2018-05-16T04:44:20.756Z,1009.07
2018-05-16T04:44:46.408Z,1009.06
2018-05-16T04:45:12.051Z,1009.08
2018-05-16T04:45:37.678Z,1009.08
2018-05-16T04:46:03.831Z,1009.03
2018-05-16T04:46:29.492Z,1009.07
2018-05-16T04:46:54.826Z,1009.03
2018-05-16T04:47:20.415Z,1009.09
2018-05-16T04:47:46.070Z,1009.05
2018-05-16T04:48:11.570Z,1009.07
2018-05-16T04:48:37.467Z,1009.07
2018-05-16T04:49:03.330Z,1009.04
2018-05-16T04:49:28.980Z,1009.02
2018-05-16T04:49:54.670Z,1009.04
2018-05-16T04:50:20.220Z,1009
2018-05-16T04:50:45.878Z,1009.04
2018-05-16T04:51:11.475Z,1009.06
2018-05-16T04:51:37.048Z,1009.06
2018-05-16T04:52:02.600Z,1009.07
2018-05-16T04:52:28.292Z,1009.06
2018-05-16T04:52:53.954Z,1009.07
2018-05-16T04:53:19.720Z,1009.12
2018-05-16T04:53:45.238Z,1009.1
2018-05-16T04:54:10.935Z,1009.09
2018-05-16T04:54:36.550Z,1009.07
2018-05-16T04:55:02.723Z,1009.11
2018-05-16T04:55:28.263Z,1009.1
2018-05-16T04:55:53.967Z,1009.11
2018-05-16T04:56:19.727Z,1009.1
2018-05-16T04:56:45.605Z,1009.07
2018-05-16T04:57:11.251Z,1009.07
2018-05-16T04:57:37.006Z,1009.04
2018-05-16T04:58:02.779Z,1009.08
2018-05-16T04:58:28.339Z,1009.02
2018-05-16T04:58:53.920Z,1009.03
2018-05-16T04:59:19.541Z,1009.04
2018-05-16T04:59:45.105Z,1009.02
2018-05-16T05:00:10.794Z,1009.02
2018-05-16T05:00:36.278Z,1009.01
2018-05-16T05:01:02.113Z,1009.04
2018-05-16T05:01:27.566Z,1009
2018-05-16T05:01:53.162Z,1009.02
2018-05-16T05:02:19.138Z,1009.05
2018-05-16T05:02:44.604Z,1008.97
2018-05-16T05:03:10.311Z,1008.96
2018-05-16T05:03:35.868Z,1009.02
2018-05-16T05:04:01.601Z,1009
2018-05-16T05:04:27.430Z,1009.01
2018-05-16T05:04:52.980Z,1009
2018-05-16T05:05:18.792Z,1009.02
2018-05-16T05:05:44.272Z,1009.03
2018-05-16T05:06:09.846Z,1008.99
2018-05-16T05:06:35.413Z,1009.02
2018-05-16T05:07:01.007Z,1009.01
2018-05-16T05:07:26.609Z,1009
2018-05-16T05:07:52.275Z,1009.02
2018-05-16T05:08:17.817Z,1009
2018-05-16T05:08:43.440Z,1008.97
2018-05-16T05:09:09.007Z,1009.03
2018-05-16T05:09:34.832Z,1009.06
2018-05-16T05:10:00.349Z,1009.03
2018-05-16T05:10:26.053Z,1009.03
2018-05-16T05:10:51.951Z,1009.01
2018-05-16T05:11:17.203Z,1009.02
2018-05-16T05:11:42.744Z,1009.03
2018-05-16T05:12:08.457Z,1009.05
2018-05-16T05:12:34.220Z,1009.08
2018-05-16T05:12:59.804Z,1009.1
2018-05-16T05:13:25.729Z,1009.08
2018-05-16T05:13:51.271Z,1009.07
2018-05-16T05:14:16.909Z,1009.07
2018-05-16T05:14:42.545Z,1009.09
2018-05-16T05:15:08.217Z,1009.11
2018-05-16T05:15:33.932Z,1009.13
2018-05-16T05:15:59.404Z,1009.15
2018-05-16T05:16:25.115Z,1009.14
2018-05-16T05:16:50.641Z,1009.09
2018-05-16T05:17:16.093Z,1009.14
2018-05-16T05:17:41.589Z,1009.13
2018-05-16T05:18:07.316Z,1009.15
2018-05-16T05:18:32.874Z,1009.12
2018-05-16T05:18:58.227Z,1009.1
2018-05-16T05:19:23.726Z,1009.1
2018-05-16T05:19:49.266Z,1009.12
2018-05-16T05:20:14.749Z,1009.1
2018-05-16T05:20:40.257Z,1009.09
2018-05-16T05:21:05.745Z,1009.11
2018-05-16T05:21:31.268Z,1009.08
2018-05-16T05:21:56.766Z,1009.09
2018-05-16T05:22:22.239Z,1009.09
2018-05-16T05:22:47.717Z,1009.06
2018-05-16T05:23:13.210Z,1009.07
2018-05-16T05:23:38.968Z,1009.07
2018-05-16T05:24:04.977Z,1009.06
2018-05-16T05:24:30.825Z,1009.05
2018-05-16T05:24:56.391Z,1009.05
2018-05-16T05:25:22.096Z,1009.08
2018-05-16T05:25:47.622Z,1009.05
2018-05-16T05:26:13.100Z,1009.05
2018-05-16T05:26:38.583Z,1009.09
2018-05-16T05:27:04.054Z,1009.06
2018-05-16T05:27:29.581Z,1009.08
2018-05-16T05:27:55.063Z,1009.1
2018-05-16T05:28:20.544Z,1009.08
2018-05-16T05:28:46.084Z,1009.12
2018-05-16T05:29:11.581Z,1009.15
2018-05-16T05:29:37.060Z,1009.15
2018-05-16T05:30:02.635Z,1009.15
2018-05-16T05:30:28.147Z,1009.14
2018-05-16T05:30:53.653Z,1009.15
2018-05-16T05:31:19.150Z,1009.13
2018-05-16T05:31:44.974Z,1009.16
2018-05-16T05:32:10.364Z,1009.17
2018-05-16T05:32:35.894Z,1009.19
2018-05-16T05:33:01.383Z,1009.22
2018-05-16T05:33:26.870Z,1009.19
2018-05-16T05:33:52.392Z,1009.2
2018-05-16T05:34:17.895Z,1009.18
2018-05-16T05:34:43.512Z,1009.15
2018-05-16T05:35:08.870Z,1009.16
2018-05-16T05:35:34.358Z,1009.19
2018-05-16T05:35:59.852Z,1009.18
2018-05-16T05:36:25.364Z,1009.21
2018-05-16T05:36:51.032Z,1009.29
2018-05-16T05:37:16.496Z,1009.3
2018-05-16T05:37:41.989Z,1009.28
2018-05-16T05:38:07.505Z,1009.29
2018-05-16T05:38:32.985Z,1009.31
2018-05-16T05:38:58.489Z,1009.3
2018-05-16T05:39:24.020Z,1009.32
2018-05-16T05:39:49.579Z,1009.33
2018-05-16T05:40:15.028Z,1009.3
2018-05-16T05:40:40.760Z,1009.35
2018-05-16T05:41:06.165Z,1009.31
2018-05-16T05:41:31.867Z,1009.33
2018-05-16T05:41:57.361Z,1009.31
2018-05-16T05:42:22.873Z,1009.34
2018-05-16T05:42:48.478Z,1009.34
2018-05-16T05:43:14.043Z,1009.33
2018-05-16T05:43:39.470Z,1009.33
2018-05-16T05:44:05.169Z,1009.36
2018-05-16T05:44:30.698Z,1009.35
2018-05-16T05:44:56.203Z,1009.37
2018-05-16T05:45:21.670Z,1009.4
2018-05-16T05:45:47.144Z,1009.35
2018-05-16T05:46:12.623Z,1009.38
2018-05-16T05:47:10.656Z,1009.42
2018-05-16T05:47:36.185Z,1009.37
2018-05-16T05:48:01.696Z,1009.42
2018-05-16T05:48:27.163Z,1009.42
2018-05-16T05:48:52.639Z,1009.42
2018-05-16T05:49:18.178Z,1009.43
2018-05-16T05:49:43.649Z,1009.44
2018-05-16T05:50:09.161Z,1009.42
2018-05-16T05:50:34.674Z,1009.41
2018-05-16T05:51:00.171Z,1009.42
2018-05-16T05:51:25.651Z,1009.43
2018-05-16T05:51:51.224Z,1009.44
2018-05-16T05:52:16.739Z,1009.39
2018-05-16T05:52:42.219Z,1009.39
2018-05-16T05:53:07.696Z,1009.39
2018-05-16T05:53:33.188Z,1009.42
2018-05-16T05:53:58.686Z,1009.42
2018-05-16T05:54:24.173Z,1009.39
2018-05-16T05:54:49.697Z,1009.39
2018-05-16T05:55:15.207Z,1009.38
2018-05-16T05:55:40.662Z,1009.39
2018-05-16T05:56:06.154Z,1009.41
2018-05-16T05:56:31.688Z,1009.41
2018-05-16T05:56:57.206Z,1009.44
2018-05-16T05:57:22.675Z,1009.44
2018-05-16T05:57:48.181Z,1009.45
2018-05-16T05:58:13.683Z,1009.46
2018-05-16T05:58:39.211Z,1009.45
2018-05-16T05:59:04.703Z,1009.46
2018-05-16T05:59:30.185Z,1009.45
2018-05-16T05:59:55.720Z,1009.46
2018-05-16T06:00:21.180Z,1009.44
2018-05-16T06:00:46.670Z,1009.47
2018-05-16T06:01:12.159Z,1009.47
2018-05-16T06:01:37.630Z,1009.48
2018-05-16T06:02:03.128Z,1009.47
2018-05-16T06:02:28.633Z,1009.45
2018-05-16T06:02:54.119Z,1009.44
2018-05-16T06:03:19.621Z,1009.4
2018-05-16T06:03:45.178Z,1009.42
2018-05-16T06:04:10.748Z,1009.46
2018-05-16T06:04:36.218Z,1009.38
2018-05-16T06:05:01.852Z,1009.4
2018-05-16T06:05:27.380Z,1009.41
2018-05-16T06:05:52.746Z,1009.4
2018-05-16T06:06:18.244Z,1009.41
2018-05-16T06:06:43.740Z,1009.43
2018-05-16T06:07:09.204Z,1009.41
2018-05-16T06:07:34.700Z,1009.43
2018-05-16T06:08:00.201Z,1009.42
2018-05-16T06:08:25.706Z,1009.39
2018-05-16T06:08:51.281Z,1009.37
2018-05-16T06:09:16.770Z,1009.41
2018-05-16T06:09:42.353Z,1009.4
2018-05-16T06:10:07.872Z,1009.36
2018-05-16T06:10:33.355Z,1009.36
2018-05-16T06:10:58.877Z,1009.37
2018-05-16T06:11:24.339Z,1009.35
2018-05-16T06:11:49.795Z,1009.37
2018-05-16T06:12:15.307Z,1009.35
2018-05-16T06:12:40.915Z,1009.34
2018-05-16T06:13:06.328Z,1009.35
2018-05-16T06:13:31.833Z,1009.36
2018-05-16T06:13:57.319Z,1009.36
2018-05-16T06:14:22.804Z,1009.35
2018-05-16T06:14:48.304Z,1009.33
2018-05-16T06:15:13.762Z,1009.34
2018-05-16T06:15:39.248Z,1009.35
2018-05-16T06:16:04.754Z,1009.35
2018-05-16T06:16:30.414Z,1009.34
2018-05-16T06:16:55.813Z,1009.38
2018-05-16T06:17:21.345Z,1009.38
2018-05-16T06:17:46.843Z,1009.41
2018-05-16T06:18:12.341Z,1009.44
2018-05-16T06:18:37.892Z,1009.42
2018-05-16T06:19:03.379Z,1009.45
2018-05-16T06:19:28.937Z,1009.48
2018-05-16T06:19:54.519Z,1009.48
2018-05-16T06:20:19.943Z,1009.53
2018-05-16T06:20:45.469Z,1009.54
2018-05-16T06:21:11.588Z,1009.48
2018-05-16T06:21:37.089Z,1009.48
2018-05-16T06:22:02.585Z,1009.53
2018-05-16T06:22:28.081Z,1009.52
2018-05-16T06:22:53.542Z,1009.5
2018-05-16T06:23:19.077Z,1009.53
2018-05-16T06:23:44.571Z,1009.51
2018-05-16T06:24:10.182Z,1009.56
2018-05-16T06:24:35.668Z,1009.57
2018-05-16T06:25:01.290Z,1009.56
2018-05-16T06:25:26.751Z,1009.55
2018-05-16T06:25:52.315Z,1009.58
2018-05-16T06:26:17.840Z,1009.58
2018-05-16T06:26:43.357Z,1009.59
2018-05-16T06:27:08.898Z,1009.6
2018-05-16T06:27:34.378Z,1009.59
2018-05-16T06:27:59.952Z,1009.58
2018-05-16T06:28:25.458Z,1009.57
2018-05-16T06:28:51.115Z,1009.61
2018-05-16T06:29:16.659Z,1009.58
2018-05-16T06:29:42.510Z,1009.59
2018-05-16T06:30:08.060Z,1009.57
2018-05-16T06:30:33.598Z,1009.59
2018-05-16T06:30:59.391Z,1009.57
2018-05-16T06:31:24.878Z,1009.59
2018-05-16T06:31:50.416Z,1009.62
2018-05-16T06:32:15.818Z,1009.61
2018-05-16T06:32:41.355Z,1009.59
2018-05-16T06:33:06.854Z,1009.6
2018-05-16T06:33:32.318Z,1009.58
2018-05-16T06:33:57.879Z,1009.54
2018-05-16T06:34:23.371Z,1009.59
2018-05-16T06:34:48.887Z,1009.58
2018-05-16T06:35:14.436Z,1009.59
2018-05-16T06:35:40.088Z,1009.62
2018-05-16T06:36:05.736Z,1009.63
2018-05-16T06:36:31.502Z,1009.62
2018-05-16T06:36:57.490Z,1009.63
2018-05-16T06:37:23.020Z,1009.62
2018-05-16T06:37:48.771Z,1009.67
2018-05-16T06:38:14.747Z,1009.6
2018-05-16T06:38:40.708Z,1009.63
2018-05-16T06:39:06.249Z,1009.65
2018-05-16T06:39:31.746Z,1009.6
2018-05-16T06:39:57.272Z,1009.62
2018-05-16T06:40:23.109Z,1009.58
2018-05-16T06:40:48.629Z,1009.6
2018-05-16T06:41:52.221Z,1009.64
2018-05-16T06:42:17.780Z,1009.58
2018-05-16T06:42:43.388Z,1009.64
2018-05-16T06:43:09.002Z,1009.67
2018-05-16T06:43:34.705Z,1009.64
2018-05-16T06:44:00.373Z,1009.67
2018-05-16T06:44:26.052Z,1009.65
2018-05-16T06:44:52.017Z,1009.67
2018-05-16T06:45:17.866Z,1009.67
2018-05-16T06:45:43.565Z,1009.63
2018-05-16T06:46:09.305Z,1009.7
2018-05-16T06:46:34.824Z,1009.63
2018-05-16T06:47:00.515Z,1009.64
2018-05-16T06:47:26.291Z,1009.65
2018-05-16T06:47:52.322Z,1009.65
2018-05-16T06:48:18.231Z,1009.7
2018-05-16T06:48:43.712Z,1009.66
2018-05-16T06:49:09.383Z,1009.67
2018-05-16T06:49:35.012Z,1009.67
2018-05-16T06:50:00.808Z,1009.65
2018-05-16T06:50:26.320Z,1009.63
2018-05-16T06:50:51.898Z,1009.65
2018-05-16T06:51:17.509Z,1009.62
2018-05-16T06:51:43.102Z,1009.62
2018-05-16T06:52:08.859Z,1009.61
2018-05-16T06:52:34.299Z,1009.55
2018-05-16T06:52:59.881Z,1009.64
2018-05-16T06:53:25.565Z,1009.61
2018-05-16T06:53:51.144Z,1009.55
2018-05-16T06:54:16.511Z,1009.56
2018-05-16T06:54:42.039Z,1009.55
2018-05-16T06:55:07.556Z,1009.56
2018-05-16T06:55:33.267Z,1009.6
2018-05-16T06:55:58.790Z,1009.58
2018-05-16T06:56:24.424Z,1009.61
2018-05-16T06:56:50.017Z,1009.64
2018-05-16T06:57:15.627Z,1009.61
2018-05-16T06:57:41.240Z,1009.64
2018-05-16T06:58:07.152Z,1009.63
2018-05-16T06:58:32.628Z,1009.64
2018-05-16T06:58:58.158Z,1009.64
2018-05-16T06:59:23.658Z,1009.63
2018-05-16T06:59:49.173Z,1009.64
2018-05-16T07:00:14.696Z,1009.69
2018-05-16T07:00:40.196Z,1009.65
2018-05-16T07:01:05.715Z,1009.63
2018-05-16T07:01:31.442Z,1009.69
2018-05-16T07:01:57.019Z,1009.65
2018-05-16T07:02:22.508Z,1009.65
2018-05-16T07:02:48.338Z,1009.63
2018-05-16T07:03:14.086Z,1009.62
2018-05-16T07:03:39.585Z,1009.62
2018-05-16T07:04:05.128Z,1009.61
2018-05-16T07:04:30.775Z,1009.63
2018-05-16T07:04:56.270Z,1009.63
2018-05-16T07:05:21.739Z,1009.58
2018-05-16T07:05:47.228Z,1009.63
2018-05-16T07:06:12.705Z,1009.64
2018-05-16T07:06:38.206Z,1009.67
2018-05-16T07:07:03.944Z,1009.62
2018-05-16T07:07:29.491Z,1009.6
2018-05-16T07:07:55.116Z,1009.64
2018-05-16T07:08:20.932Z,1009.67
2018-05-16T07:08:46.541Z,1009.71
2018-05-16T07:09:12.104Z,1009.71
2018-05-16T07:09:37.951Z,1009.73
2018-05-16T07:10:03.981Z,1009.71
2018-05-16T07:10:30.088Z,1009.67
2018-05-16T07:10:55.820Z,1009.73
2018-05-16T07:11:21.536Z,1009.71
2018-05-16T07:11:48.435Z,1009.73
2018-05-16T07:12:14.027Z,1009.74
2018-05-16T07:12:39.519Z,1009.76
2018-05-16T07:13:04.983Z,1009.75
2018-05-16T07:13:30.462Z,1009.8
2018-05-16T07:13:56.192Z,1009.78
2018-05-16T07:14:21.707Z,1009.8
2018-05-16T07:14:47.245Z,1009.84
2018-05-16T07:15:12.725Z,1009.83
2018-05-16T07:15:38.214Z,1009.78
2018-05-16T07:16:36.275Z,1009.9
2018-05-16T07:17:01.815Z,1009.87
2018-05-16T07:17:27.346Z,1009.86
2018-05-16T07:17:52.811Z,1009.92
2018-05-16T07:18:18.860Z,1009.93
2018-05-16T07:18:44.380Z,1009.92
2018-05-16T07:19:09.909Z,1009.93
2018-05-16T07:19:35.433Z,1009.96
2018-05-16T07:20:01.386Z,1009.95
2018-05-16T07:20:26.888Z,1009.99
2018-05-16T07:20:52.389Z,1009.96
2018-05-16T07:21:17.968Z,1009.98
2018-05-16T07:21:43.560Z,1009.99
2018-05-16T07:22:09.092Z,1009.98
2018-05-16T07:22:34.620Z,1010.02
2018-05-16T07:23:00.124Z,1010
2018-05-16T07:23:25.591Z,1009.97
2018-05-16T07:23:51.093Z,1009.98
2018-05-16T07:24:16.684Z,1009.92
2018-05-16T07:24:42.208Z,1009.95
2018-05-16T07:25:07.720Z,1009.95
2018-05-16T07:25:33.235Z,1009.96
2018-05-16T07:26:51.725Z,1009.94
2018-05-16T07:27:17.229Z,1009.93
2018-05-16T07:27:42.738Z,1009.93
2018-05-16T07:28:08.585Z,1009.97
2018-05-16T07:28:34.083Z,1010
2018-05-16T07:28:59.541Z,1009.97
2018-05-16T07:29:25.027Z,1009.93
2018-05-16T07:29:50.760Z,1009.89
2018-05-16T07:30:16.253Z,1009.96
2018-05-16T07:30:41.723Z,1009.93
2018-05-16T07:31:07.210Z,1009.94
2018-05-16T07:31:32.666Z,1009.97
2018-05-16T07:31:58.189Z,1009.99
2018-05-16T07:32:23.705Z,1009.97
2018-05-16T07:32:49.141Z,1010
2018-05-16T07:33:14.663Z,1010.02
2018-05-16T07:33:40.436Z,1010.02
2018-05-16T07:34:05.834Z,1010.02
2018-05-16T07:34:31.300Z,1010.05
2018-05-16T07:34:57.210Z,1010.04
2018-05-16T07:35:22.797Z,1010.05
2018-05-16T07:35:48.512Z,1010.03
2018-05-16T07:36:14.392Z,1010.04
2018-05-16T07:36:39.959Z,1010.06
2018-05-16T07:37:05.613Z,1009.98
2018-05-16T07:37:31.311Z,1010.05
2018-05-16T07:37:56.844Z,1010.03
2018-05-16T07:38:22.551Z,1010.06
2018-05-16T07:38:48.450Z,1010.06
2018-05-16T07:39:14.058Z,1010.11
2018-05-16T07:39:39.807Z,1010.1
2018-05-16T07:40:05.550Z,1010.08
2018-05-16T07:40:31.350Z,1010.1
2018-05-16T07:40:57.220Z,1010.1
2018-05-16T07:41:22.779Z,1010.14
2018-05-16T07:41:48.285Z,1010.09
2018-05-16T07:42:13.834Z,1010.15
2018-05-16T07:42:39.420Z,1010.1
2018-05-16T07:43:05.063Z,1010.14
2018-05-16T07:43:30.556Z,1010.11
2018-05-16T07:43:56.032Z,1010.17
2018-05-16T07:44:21.540Z,1010.16
2018-05-16T07:44:47.041Z,1010.14
2018-05-16T07:45:12.695Z,1010.15
2018-05-16T07:45:38.382Z,1010.12
2018-05-16T07:46:04.309Z,1010.09
2018-05-16T07:46:30.130Z,1010.12
2018-05-16T07:46:55.649Z,1010.12
2018-05-16T07:47:21.360Z,1010.17
2018-05-16T07:47:47.061Z,1010.17
2018-05-16T07:48:12.820Z,1010.16
2018-05-16T07:48:38.489Z,1010.21
2018-05-16T07:49:04.389Z,1010.15
2018-05-16T07:49:30.016Z,1010.2
2018-05-16T07:49:55.761Z,1010.19
2018-05-16T07:50:21.550Z,1010.19
2018-05-16T07:50:47.067Z,1010.21
2018-05-16T07:51:12.588Z,1010.22
2018-05-16T07:51:38.029Z,1010.21
2018-05-16T07:52:03.577Z,1010.24
2018-05-16T07:52:29.082Z,1010.25
2018-05-16T07:52:54.805Z,1010.26
2018-05-16T07:53:20.415Z,1010.28
2018-05-16T07:53:46.093Z,1010.29
2018-05-16T07:54:11.535Z,1010.31
2018-05-16T07:54:37.017Z,1010.32
2018-05-16T07:55:02.621Z,1010.37
2018-05-16T07:55:28.095Z,1010.35
2018-05-16T07:55:53.630Z,1010.35
2018-05-16T07:56:19.127Z,1010.4
2018-05-16T07:56:44.760Z,1010.39
2018-05-16T07:57:10.558Z,1010.41
2018-05-16T07:57:36.060Z,1010.41
2018-05-16T07:58:01.873Z,1010.39
2018-05-16T07:58:27.345Z,1010.41
2018-05-16T07:58:52.882Z,1010.46
2018-05-16T07:59:18.584Z,1010.4
2018-05-16T07:59:44.269Z,1010.41
2018-05-16T08:00:09.837Z,1010.42
2018-05-16T08:00:35.466Z,1010.43
2018-05-16T08:01:01.167Z,1010.39
2018-05-16T08:01:27.087Z,1010.42
2018-05-16T08:01:52.731Z,1010.44
2018-05-16T08:02:18.480Z,1010.42
2018-05-16T08:02:44.086Z,1010.42
2018-05-16T08:03:09.700Z,1010.43
2018-05-16T08:03:35.462Z,1010.4
2018-05-16T08:04:01.252Z,1010.4
2018-05-16T08:04:26.793Z,1010.41
2018-05-16T08:04:52.589Z,1010.4
2018-05-16T08:05:18.280Z,1010.42
2018-05-16T08:05:44.123Z,1010.41
2018-05-16T08:06:09.880Z,1010.43
2018-05-16T08:06:35.638Z,1010.39
2018-05-16T08:07:01.544Z,1010.38
2018-05-16T08:07:27.139Z,1010.41
2018-05-16T08:07:52.721Z,1010.41
2018-05-16T08:08:18.325Z,1010.41
2018-05-16T08:08:43.774Z,1010.4
2018-05-16T08:09:09.500Z,1010.41
2018-05-16T08:09:35.035Z,1010.44
2018-05-16T08:10:00.657Z,1010.42
2018-05-16T08:10:26.244Z,1010.41
2018-05-16T08:10:51.912Z,1010.43
2018-05-16T08:11:17.483Z,1010.48
2018-05-16T08:11:43.177Z,1010.39
2018-05-16T08:12:08.879Z,1010.41
2018-05-16T08:12:35.203Z,1010.42
2018-05-16T08:13:00.687Z,1010.4
2018-05-16T08:13:26.430Z,1010.4
2018-05-16T08:13:52.490Z,1010.43
2018-05-16T08:14:18.032Z,1010.39
2018-05-16T08:14:43.989Z,1010.39
2018-05-16T08:15:09.896Z,1010.43
2018-05-16T08:15:35.839Z,1010.41
2018-05-16T08:16:01.360Z,1010.35
2018-05-16T08:16:27.217Z,1010.39
2018-05-16T08:16:52.768Z,1010.36
2018-05-16T08:17:18.351Z,1010.36
2018-05-16T08:17:43.886Z,1010.39
2018-05-16T08:18:09.505Z,1010.4
2018-05-16T08:18:35.119Z,1010.37
2018-05-16T08:19:00.776Z,1010.37
2018-05-16T08:19:26.417Z,1010.36
2018-05-16T08:19:52.168Z,1010.36
2018-05-16T08:20:17.732Z,1010.34
2018-05-16T08:20:43.448Z,1010.32
2018-05-16T08:21:09.238Z,1010.33
2018-05-16T08:21:35.002Z,1010.34
2018-05-16T08:22:00.871Z,1010.33
2018-05-16T08:22:27.171Z,1010.34
2018-05-16T08:22:53.014Z,1010.33
2018-05-16T08:23:18.601Z,1010.35
2018-05-16T08:23:44.267Z,1010.36
2018-05-16T08:24:09.828Z,1010.38
2018-05-16T08:24:35.587Z,1010.31
2018-05-16T08:25:01.168Z,1010.31
2018-05-16T08:25:26.715Z,1010.3
2018-05-16T08:25:52.301Z,1010.3
2018-05-16T08:26:17.902Z,1010.29
2018-05-16T08:26:43.580Z,1010.27
2018-05-16T08:27:09.055Z,1010.25
2018-05-16T08:27:34.622Z,1010.3
2018-05-16T08:28:00.211Z,1010.25
2018-05-16T08:28:25.873Z,1010.24
2018-05-16T08:28:51.354Z,1010.24
2018-05-16T08:29:16.987Z,1010.21
2018-05-16T08:29:42.620Z,1010.22
2018-05-16T08:30:08.281Z,1010.21
2018-05-16T08:30:33.953Z,1010.23
2018-05-16T08:30:59.587Z,1010.22
2018-05-16T08:31:25.226Z,1010.31
2018-05-16T08:31:50.948Z,1010.26
2018-05-16T08:32:16.528Z,1010.27
2018-05-16T08:32:42.077Z,1010.27
2018-05-16T08:33:07.670Z,1010.22
2018-05-16T08:33:33.426Z,1010.26
2018-05-16T08:33:58.925Z,1010.26
2018-05-16T08:34:24.584Z,1010.31
2018-05-16T08:34:50.137Z,1010.27
2018-05-16T08:35:15.820Z,1010.27
2018-05-16T08:35:41.553Z,1010.31
2018-05-16T08:36:07.008Z,1010.31
2018-05-16T08:36:32.601Z,1010.26
2018-05-16T08:36:58.408Z,1010.27
2018-05-16T08:37:24.059Z,1010.3
2018-05-16T08:37:49.871Z,1010.29
2018-05-16T08:38:15.510Z,1010.31
2018-05-16T08:38:41.025Z,1010.31
2018-05-16T08:39:06.734Z,1010.33
2018-05-16T08:39:32.399Z,1010.35
2018-05-16T08:39:57.961Z,1010.34
2018-05-16T08:40:23.619Z,1010.35
2018-05-16T08:40:49.462Z,1010.37
2018-05-16T08:41:15.063Z,1010.33
2018-05-16T08:41:40.731Z,1010.31
2018-05-16T08:42:06.357Z,1010.28
2018-05-16T08:42:32.072Z,1010.27
2018-05-16T08:42:57.572Z,1010.28
2018-05-16T08:43:23.270Z,1010.28
2018-05-16T08:43:48.811Z,1010.27
2018-05-16T08:44:14.356Z,1010.27
2018-05-16T08:44:39.961Z,1010.26
2018-05-16T08:45:05.745Z,1010.3
2018-05-16T08:45:31.451Z,1010.25
2018-05-16T08:45:57.024Z,1010.26
2018-05-16T08:46:22.718Z,1010.25
2018-05-16T08:46:48.465Z,1010.26
2018-05-16T08:47:14.118Z,1010.23
2018-05-16T08:47:39.981Z,1010.24
2018-05-16T08:48:05.814Z,1010.25
2018-05-16T08:48:31.872Z,1010.26
2018-05-16T08:48:57.701Z,1010.25
2018-05-16T08:49:24.234Z,1010.25
2018-05-16T08:49:49.962Z,1010.3
2018-05-16T08:50:15.746Z,1010.23
2018-05-16T08:50:41.409Z,1010.23
2018-05-16T08:51:07.116Z,1010.22
2018-05-16T08:51:32.665Z,1010.22
2018-05-16T08:51:58.458Z,1010.17
2018-05-16T08:52:24.319Z,1010.18
2018-05-16T08:52:50.060Z,1010.15
2018-05-16T08:53:15.707Z,1010.23
2018-05-16T08:53:41.250Z,1010.2
2018-05-16T08:54:07.178Z,1010.18
2018-05-16T08:54:32.898Z,1010.17
2018-05-16T08:54:58.599Z,1010.2
2018-05-16T08:55:24.335Z,1010.2
2018-05-16T08:55:49.960Z,1010.23
2018-05-16T08:56:58.947Z,1010.19
2018-05-16T08:57:24.576Z,1010.17
2018-05-16T08:57:50.338Z,1010.16
2018-05-16T08:58:15.978Z,1010.16
2018-05-16T08:58:41.674Z,1010.15
2018-05-16T08:59:07.308Z,1010.15
2018-05-16T08:59:33.091Z,1010.1
2018-05-16T08:59:58.663Z,1010.1
2018-05-16T09:00:24.163Z,1010.15
2018-05-16T09:00:49.684Z,1010.17
2018-05-16T09:01:15.457Z,1010.14
2018-05-16T09:01:40.985Z,1010.13
2018-05-16T09:02:06.638Z,1010.11
2018-05-16T09:02:32.328Z,1010.12
2018-05-16T09:02:57.931Z,1010.14
2018-05-16T09:03:23.460Z,1010.11
2018-05-16T09:03:48.980Z,1010.09
2018-05-16T09:04:14.439Z,1010.07
2018-05-16T09:04:40.042Z,1010.07
2018-05-16T09:05:05.560Z,1010.15
2018-05-16T09:05:31.093Z,1010.09
2018-05-16T09:05:56.630Z,1010.13
2018-05-16T09:06:22.216Z,1010.09
2018-05-16T09:06:47.787Z,1010.15
2018-05-16T09:07:13.232Z,1010.2
2018-05-16T09:07:38.713Z,1010.18
2018-05-16T09:08:04.267Z,1010.16
2018-05-16T09:08:29.761Z,1010.13
2018-05-16T09:08:55.265Z,1010.18
2018-05-16T09:09:20.843Z,1010.16
2018-05-16T09:09:46.683Z,1010.14
2018-05-16T09:10:12.422Z,1010.14
2018-05-16T09:10:38.180Z,1010.15
2018-05-16T09:11:03.743Z,1010.16
2018-05-16T09:11:29.292Z,1010.12
2018-05-16T09:11:54.786Z,1010.13
2018-05-16T09:12:20.468Z,1010.12
2018-05-16T09:12:45.963Z,1010.13
2018-05-16T09:13:11.484Z,1010.13
2018-05-16T09:13:37.014Z,1010.12
2018-05-16T09:14:02.562Z,1010.13
2018-05-16T09:14:28.133Z,1010.12
2018-05-16T09:14:53.719Z,1010.11
2018-05-16T09:15:19.208Z,1010.09
2018-05-16T09:15:44.800Z,1010.14
2018-05-16T09:16:10.472Z,1010.19
2018-05-16T09:16:36.060Z,1010.13
2018-05-16T09:17:01.663Z,1010.18
2018-05-16T09:17:27.196Z,1010.16
2018-05-16T09:17:52.730Z,1010.15
2018-05-16T09:18:18.211Z,1010.18
2018-05-16T09:18:43.768Z,1010.14
2018-05-16T09:19:09.262Z,1010.12
2018-05-16T09:19:34.769Z,1010.15
2018-05-16T09:20:00.356Z,1010.18
2018-05-16T09:20:26.267Z,1010.13
2018-05-16T09:20:51.672Z,1010.17
2018-05-16T09:21:17.243Z,1010.13
2018-05-16T09:21:42.725Z,1010.18
2018-05-16T09:22:08.423Z,1010.12
2018-05-16T09:22:34.122Z,1010.16
2018-05-16T09:22:59.599Z,1010.12
2018-05-16T09:23:25.384Z,1010.17
2018-05-16T09:23:50.860Z,1010.13
2018-05-16T09:24:16.405Z,1010.16
2018-05-16T09:24:42.375Z,1010.13